Terminal Aerodrome Forecast
Issued by NWS Boston, MA

Home | Current Version | Previous Version | Text Only | Print | Product List | Glossary On
Versions: 1 2 3 4 5 6 7 8 9 10 11 12 13 14 15 16 17 18 19 20 21 22 23 24 25 26 27 28 29 30 31 32 33 34 35 36 37 38 39 40 41 42 43 44 45
000
FTUS41 KBOX 081120
TAFBOS
TAF
KBOS 081120Z 0812/0918 04025G40KT P6SM OVC030
     FM081400 04025G42KT 2SM -SN OVC020
     FM081500 03024G42KT 1/2SM SN OVC010
      TEMPO 0815/0819 1/4SM +SN OVC004
     FM082300 01017G32KT 2SM -SN OVC015
     FM090700 36009KT 2SM -SHSN OVC008
     FM091100 35006KT P6SM VCSH OVC008=

USA.gov is the U.S. government's official web portal to all federal, state and local government web resources and services.